Time;durP1;ratioP1;P1;durP2;ratioP2;P2;SDS_P1;SDS_P2;PMS_P1;PMS_P2;Temp;Humidity;BMP_temperature;BMP_pressure;BME280_temperature;BME280_humidity;BME280_pressure;Samples;Min_cycle;Max_cycle;Signal;HPM_P1;HPM_P2
2022/09/16 00:00:45;;;;;;;9.60;3.38;;;;;;;24.80;54.09;100107.97;5010827;28;20125;-80
2022/09/16 00:03:12;;;;;;;7.07;3.03;;;;;;;24.40;53.43;100027.41;5011175;28;20091;-82
2022/09/16 00:05:41;;;;;;;7.93;3.55;;;;;;;24.75;54.12;100094.31;5010901;28;20057;-83
2022/09/16 00:08:08;;;;;;;10.27;3.72;;;;;;;24.21;53.16;99985.25;5010297;28;20084;-83
2022/09/16 00:10:35;;;;;;;7.90;3.55;;;;;;;24.34;53.64;100011.28;5010717;28;20046;-79
2022/09/16 00:13:03;;;;;;;7.95;3.35;;;;;;;25.08;53.22;100109.88;5011015;28;20130;-81
2022/09/16 00:15:30;;;;;;;11.52;3.78;;;;;;;24.70;53.06;100048.06;5010535;28;20128;-81
2022/09/16 00:17:57;;;;;;;13.73;3.92;;;;;;;24.92;54.23;100111.47;5010769;28;20057;-80
2022/09/16 00:20:24;;;;;;;12.70;3.78;;;;;;;24.62;53.08;100024.88;5028210;28;20153;-82
2022/09/16 00:22:53;;;;;;;13.15;3.83;;;;;;;24.16;53.90;99979.75;5010847;28;20209;-81
2022/09/16 00:25:19;;;;;;;9.07;3.65;;;;;;;24.35;54.60;100030.03;5010936;28;20148;-81
2022/09/16 00:27:48;;;;;;;7.32;3.47;;;;;;;24.76;54.70;100101.41;5028042;28;20136;-80
2022/09/16 00:30:15;;;;;;;11.45;4.25;;;;;;;24.84;54.86;100111.88;5010505;28;20045;-82
2022/09/16 00:32:41;;;;;;;12.05;4.03;;;;;;;24.49;55.05;100068.56;5010289;28;20137;-81
2022/09/16 00:35:08;;;;;;;9.65;3.85;;;;;;;24.75;55.44;100121.44;5010618;28;20136;-80
2022/09/16 00:37:35;;;;;;;8.45;3.10;;;;;;;24.60;55.94;100100.28;5009921;28;20567;-80
2022/09/16 00:40:02;;;;;;;13.10;3.67;;;;;;;24.47;56.43;100095.94;5010638;28;20509;-81
2022/09/16 00:42:28;;;;;;;8.70;3.67;;;;;;;24.40;56.43;100075.41;5010368;28;20060;-83
2022/09/16 00:44:57;;;;;;;10.55;4.57;;;;;;;24.56;56.60;100111.84;5010059;28;20056;-82
2022/09/16 00:47:51;;;;;;;8.77;3.72;;;;;;;24.36;57.51;100088.63;5027951;28;20153;-81
2022/09/16 00:50:54;;;;;;;8.02;3.80;;;;;;;24.37;57.51;100084.88;5009850;28;20467;-79
2022/09/16 00:53:28;;;;;;;8.27;3.72;;;;;;;24.25;57.87;100082.19;4985842;28;20412;-83
2022/09/16 00:55:57;;;;;;;10.18;4.10;;;;;;;23.74;56.98;100007.03;5010457;28;20242;-81
2022/09/16 00:58:46;;;;;;;12.60;3.58;;;;;;;23.54;57.83;99975.69;5027496;28;20088;-82
2022/09/16 01:01:13;;;;;;;9.70;4.07;;;;;;;24.00;58.29;100049.09;5025883;28;20140;-81
2022/09/16 01:03:54;;;;;;;9.13;4.13;;;;;;;24.44;56.78;100112.69;5026000;28;20515;-82
2022/09/16 01:06:23;;;;;;;8.60;3.90;;;;;;;23.95;56.63;100013.72;5010204;28;20266;-81
2022/09/16 01:08:50;;;;;;;10.43;4.35;;;;;;;24.36;57.73;100091.34;5011048;28;20053;-80
2022/09/16 01:11:16;;;;;;;12.00;3.80;;;;;;;24.39;57.61;100101.69;5010841;28;20416;-79
2022/09/16 01:13:45;;;;;;;10.98;3.88;;;;;;;23.98;57.66;100024.09;5010555;28;20057;-79
2022/09/16 01:16:33;;;;;;;10.48;4.03;;;;;;;24.44;57.57;100100.97;5011613;28;20144;-80
2022/09/16 01:19:21;;;;;;;11.02;4.13;;;;;;;24.47;56.49;100093.25;5012087;28;20088;-79
2022/09/16 01:22:06;;;;;;;11.10;3.95;;;;;;;24.17;56.93;100054.59;5010711;28;20137;-80
2022/09/16 01:24:32;;;;;;;15.00;3.92;;;;;;;23.33;56.53;99898.59;5010601;28;20054;-80
2022/09/16 01:27:11;;;;;;;11.55;4.13;;;;;;;24.48;57.33;100102.19;5010286;28;20053;-79
2022/09/16 01:29:59;;;;;;;11.20;3.50;;;;;;;24.58;56.59;100101.56;5010955;28;20049;-78
2022/09/16 01:33:00;;;;;;;9.30;3.85;;;;;;;24.55;56.47;100104.78;5028387;28;20072;-81
2022/09/16 01:35:48;;;;;;;10.23;3.25;;;;;;;24.60;57.77;100099.44;5026715;28;20057;-79
2022/09/16 01:38:45;;;;;;;12.35;4.22;;;;;;;24.17;57.25;100041.03;5010025;28;20057;-82
2022/09/16 01:41:35;;;;;;;14.73;4.35;;;;;;;24.41;58.20;100107.72;5010129;28;20057;-80
2022/09/16 01:44:51;;;;;;;19.20;7.22;;;;;;;24.39;57.94;100109.84;5009999;28;20108;-80
2022/09/16 01:47:37;;;;;;;14.38;5.50;;;;;;;24.35;58.50;100102.44;4974596;28;20144;-80
2022/09/16 01:50:09;;;;;;;11.05;5.20;;;;;;;23.88;59.22;100035.53;4993178;28;20050;-79
2022/09/16 01:52:38;;;;;;;15.75;3.97;;;;;;;24.22;59.26;100101.63;4990540;28;20133;-78
2022/09/16 01:55:26;;;;;;;17.88;4.38;;;;;;;24.16;59.34;100099.06;4990736;28;20386;-80
2022/09/16 01:58:05;;;;;;;8.93;3.90;;;;;;;24.14;58.80;100091.16;4991732;28;20053;-81
2022/09/16 02:00:32;;;;;;;11.73;3.97;;;;;;;24.14;59.16;100093.03;4999991;28;20469;-80
2022/09/16 02:03:28;;;;;;;10.60;4.57;;;;;;;24.13;59.38;100097.66;5019284;28;20065;-81
2022/09/16 02:06:13;;;;;;;16.35;4.43;;;;;;;24.13;59.67;100107.63;4989931;28;20107;-79
2022/09/16 02:09:04;;;;;;;10.20;3.85;;;;;;;23.89;59.50;100070.56;4990566;28;20053;-80
2022/09/16 02:11:32;;;;;;;8.10;3.80;;;;;;;24.09;59.02;100102.69;4989913;28;20116;-80
2022/09/16 02:14:20;;;;;;;9.48;4.22;;;;;;;23.94;59.24;100075.25;4989544;28;20564;-80
2022/09/16 02:16:50;;;;;;;8.40;3.35;;;;;;;24.18;59.09;100099.66;4989766;28;20675;-80
2022/09/16 02:19:23;;;;;;;7.70;3.30;;;;;;;23.86;59.25;100065.63;4990005;28;20096;-80
2022/09/16 02:21:53;;;;;;;9.05;3.33;;;;;;;24.02;60.25;100102.00;4989598;28;20058;-80
2022/09/16 02:24:21;;;;;;;7.32;4.20;;;;;;;23.95;60.37;100106.72;4989901;28;20557;-79
2022/09/16 02:26:54;;;;;;;9.35;4.05;;;;;;;23.94;60.71;100105.09;4989636;28;20145;-79
2022/09/16 02:29:24;;;;;;;8.23;4.00;;;;;;;23.81;60.29;100089.91;4989674;28;20141;-80
2022/09/16 02:31:56;;;;;;;7.18;3.00;;;;;;;23.90;60.81;100098.47;4989172;28;20066;-78
2022/09/16 02:34:37;;;;;;;12.43;4.30;;;;;;;23.86;60.28;100105.41;4989677;28;20053;-80
2022/09/16 02:37:10;;;;;;;13.27;3.92;;;;;;;23.84;60.88;100099.44;4995462;28;20038;-81
2022/09/16 02:39:40;;;;;;;7.75;3.40;;;;;;;23.74;60.37;100074.78;5010027;28;20049;-82
2022/09/16 02:42:07;;;;;;;11.48;3.80;;;;;;;23.56;60.30;100054.84;5027199;28;20049;-80
2022/09/16 02:44:34;;;;;;;9.07;4.18;;;;;;;23.59;59.95;100067.09;5009225;28;20057;-79
2022/09/16 02:47:12;;;;;;;10.05;4.05;;;;;;;23.70;60.44;100076.31;5026986;28;20080;-78
2022/09/16 02:49:51;;;;;;;18.50;4.97;;;;;;;23.68;59.34;100068.41;5008824;28;20077;-78
2022/09/16 02:52:56;;;;;;;8.77;4.00;;;;;;;23.71;59.73;100073.34;5009129;28;20140;-79
2022/09/16 02:55:51;;;;;;;12.43;4.32;;;;;;;23.81;60.65;100091.75;4976541;28;20119;-79
2022/09/16 02:58:17;;;;;;;10.50;3.60;;;;;;;23.75;60.00;100076.47;5027476;28;20042;-82
2022/09/16 03:00:47;;;;;;;10.30;3.95;;;;;;;23.23;58.87;99975.00;5008876;28;20539;-77
2022/09/16 03:03:14;;;;;;;9.43;3.58;;;;;;;23.90;59.12;100082.22;5008784;28;20099;-81
2022/09/16 03:06:10;;;;;;;15.32;4.55;;;;;;;23.94;58.37;100088.81;5026378;28;20080;-80
2022/09/16 03:08:37;;;;;;;10.43;4.35;;;;;;;24.01;58.18;100075.97;5009419;28;20049;-80
2022/09/16 03:11:27;;;;;;;11.88;3.95;;;;;;;23.43;57.61;99977.38;5008912;28;20406;-81
2022/09/16 03:14:14;;;;;;;7.72;3.85;;;;;;;24.16;58.06;100090.91;5009231;28;20049;-79
2022/09/16 03:16:55;;;;;;;17.80;4.45;;;;;;;23.60;58.56;100007.28;5009311;28;20124;-80
2022/09/16 03:19:59;;;;;;;12.80;4.30;;;;;;;24.14;58.17;100082.19;5008847;28;20045;-78
2022/09/16 03:22:56;;;;;;;10.20;3.70;;;;;;;24.23;56.63;100078.88;5010288;28;20129;-78
2022/09/16 03:25:38;;;;;;;11.90;3.72;;;;;;;24.24;56.63;100076.97;5009231;28;20497;-79
2022/09/16 03:28:38;;;;;;;16.38;4.45;;;;;;;24.42;55.93;100084.97;5008564;28;20054;-80
2022/09/16 03:31:16;;;;;;;16.85;4.30;;;;;;;23.87;56.19;99983.22;5009370;28;20084;-80
2022/09/16 03:34:02;;;;;;;10.73;4.60;;;;;;;24.58;55.22;100083.41;5008441;28;20060;-80
2022/09/16 03:36:34;;;;;;;9.15;3.75;;;;;;;24.30;55.09;100033.47;5009123;28;20075;-81
2022/09/16 03:39:02;;;;;;;10.43;4.07;;;;;;;24.59;55.30;100084.22;5008426;28;20053;-79
2022/09/16 03:41:31;;;;;;;15.30;3.50;;;;;;;24.53;55.19;100069.72;5008545;28;20140;-80
2022/09/16 03:43:59;;;;;;;11.45;4.30;;;;;;;24.55;54.93;100061.38;5027102;28;20059;-77
2022/09/16 03:46:29;;;;;;;;;;;;;;;24.61;54.92;100071.22;5029163;28;20049;-79
2022/09/16 03:48:57;;;;;;;17.92;3.55;;;;;;;24.44;55.10;100044.88;5028506;28;20028;-80
2022/09/16 03:51:24;;;;;;;11.43;3.15;;;;;;;23.61;55.29;99916.78;5012209;28;20139;-79
2022/09/16 03:53:52;;;;;;;13.20;4.43;;;;;;;24.56;55.21;100063.81;5029774;28;20145;-80
2022/09/16 03:56:19;;;;;;;10.48;4.00;;;;;;;24.46;54.85;100040.03;5012381;28;20123;-80
2022/09/16 03:58:49;;;;;;;8.55;3.78;;;;;;;24.63;54.94;100075.34;5011910;28;20051;-79
2022/09/16 04:01:16;;;;;;;9.05;3.70;;;;;;;24.34;54.82;100014.81;5011845;28;20076;-80
2022/09/16 04:03:43;;;;;;;12.38;4.32;;;;;;;24.25;54.97;100016.28;5011415;28;20057;-81
2022/09/16 04:06:10;;;;;;;9.77;3.63;;;;;;;24.40;55.35;100049.13;5011161;28;20485;-80
2022/09/16 04:08:38;;;;;;;6.47;3.40;;;;;;;24.41;55.61;100058.88;5011538;28;20223;-78
2022/09/16 04:11:05;;;;;;;8.90;3.83;;;;;;;24.12;56.32;100021.94;5011068;28;20073;-79
2022/09/16 04:13:34;;;;;;;11.23;4.50;;;;;;;24.46;56.34;100080.72;5011356;28;20316;-79
2022/09/16 04:16:02;;;;;;;15.80;4.72;;;;;;;24.21;56.71;100050.34;5011654;28;20107;-80
2022/09/16 04:18:30;;;;;;;8.73;3.80;;;;;;;24.43;56.14;100083.88;5011271;28;20137;-80
2022/09/16 04:20:58;;;;;;;10.15;4.00;;;;;;;24.10;56.66;100028.44;5011814;28;20056;-81
2022/09/16 04:23:26;;;;;;;6.63;3.97;;;;;;;24.23;56.41;100045.50;5011337;28;20308;-79
2022/09/16 04:26:01;;;;;;;11.68;4.80;;;;;;;24.34;56.94;100073.66;5011806;28;20136;-79
2022/09/16 04:28:31;;;;;;;11.25;5.97;;;;;;;24.23;57.54;100061.78;5010964;28;20144;-79
2022/09/16 04:31:03;;;;;;;17.40;5.00;;;;;;;24.21;58.21;100078.28;5011050;28;20045;-77
2022/09/16 04:33:32;;;;;;;12.20;5.07;;;;;;;24.13;58.21;100069.69;5010388;28;20050;-80
2022/09/16 04:36:13;;;;;;;10.82;3.95;;;;;;;23.99;59.06;100052.88;5027943;28;20448;-80
2022/09/16 04:38:42;;;;;;;9.93;4.25;;;;;;;23.98;58.68;100052.06;5027739;28;20132;-82
2022/09/16 04:41:20;;;;;;;10.80;4.47;;;;;;;24.02;59.86;100074.06;5026682;28;20085;-81
2022/09/16 04:44:06;;;;;;;22.13;5.65;;;;;;;23.60;59.46;100009.97;5026751;28;20484;-80
2022/09/16 04:46:32;;;;;;;14.02;4.35;;;;;;;23.92;59.91;100074.66;5028612;28;20234;-80
2022/09/16 04:48:59;;;;;;;16.23;5.15;;;;;;;23.87;60.33;100077.28;5026667;28;20504;-83
2022/09/16 04:51:27;;;;;;;14.23;5.53;;;;;;;23.81;60.41;100075.50;5010342;28;20489;-79
2022/09/16 04:53:55;;;;;;;13.85;4.75;;;;;;;23.72;60.21;100060.66;5010558;28;20068;-81
2022/09/16 04:56:26;;;;;;;8.68;4.07;;;;;;;23.33;60.68;100006.09;5011717;28;20627;-82
2022/09/16 04:58:55;;;;;;;11.38;4.53;;;;;;;23.37;61.13;100023.50;5011046;28;20547;-81
2022/09/16 05:01:27;;;;;;;10.55;4.47;;;;;;;22.80;61.02;99943.63;5009977;28;20045;-82
2022/09/16 05:03:56;;;;;;;15.73;9.95;;;;;;;23.70;61.35;100092.56;5009814;28;20095;-80
2022/09/16 05:06:34;;;;;;;17.27;7.82;;;;;;;23.65;61.81;100085.97;5009999;28;20559;-80
2022/09/16 05:09:01;;;;;;;17.98;7.35;;;;;;;23.53;61.79;100068.06;5009733;28;20486;-81
2022/09/16 05:11:30;;;;;;;10.82;4.43;;;;;;;23.51;61.49;100051.22;5026399;28;20384;-80
2022/09/16 05:13:58;;;;;;;11.68;5.00;;;;;;;23.75;61.31;100087.28;5003558;28;20052;-81
2022/09/16 05:16:28;;;;;;;17.52;4.85;;;;;;;23.36;61.21;100019.16;4991514;28;20108;-81
2022/09/16 05:19:00;;;;;;;16.45;5.50;;;;;;;23.06;61.42;99973.22;5009927;28;20613;-80
2022/09/16 05:21:27;;;;;;;12.20;5.13;;;;;;;23.84;60.82;100086.72;5009950;28;20459;-81
2022/09/16 05:23:58;;;;;;;12.30;4.45;;;;;;;22.91;61.67;99955.50;5026717;28;20058;-81
2022/09/16 05:26:27;;;;;;;12.52;5.32;;;;;;;23.03;62.50;99979.94;5029447;28;20115;-81
2022/09/16 05:28:54;;;;;;;13.10;5.13;;;;;;;22.69;62.70;99936.31;5030660;28;20444;-82
2022/09/16 05:31:23;;;;;;;16.13;5.93;;;;;;;22.60;62.78;99921.50;5003760;28;20041;-80
2022/09/16 05:33:54;;;;;;;13.90;5.57;;;;;;;23.38;63.31;100054.97;4992710;28;20053;-80
2022/09/16 05:36:25;;;;;;;17.30;5.10;;;;;;;23.64;63.65;100095.16;4990387;28;20553;-81
2022/09/16 05:38:51;;;;;;;17.25;5.07;;;;;;;23.66;63.73;100089.50;4989874;28;20509;-80
2022/09/16 05:41:38;;;;;;;25.05;5.88;;;;;;;23.51;63.99;100062.88;4993029;28;20521;-80
2022/09/16 05:44:08;;;;;;;16.25;5.57;;;;;;;23.62;64.21;100083.72;4990261;28;20058;-82
2022/09/16 05:46:34;;;;;;;19.33;5.50;;;;;;;23.52;64.16;100064.53;4990218;28;20053;-80
2022/09/16 05:49:02;;;;;;;16.15;5.88;;;;;;;23.07;64.11;99983.00;5007023;28;20053;-80
2022/09/16 05:51:30;;;;;;;14.85;5.72;;;;;;;23.75;63.99;100084.59;4990110;28;20058;-83
2022/09/16 05:53:58;;;;;;;19.63;6.53;;;;;;;22.67;62.87;99908.69;4996295;28;20124;-80
2022/09/16 05:56:26;;;;;;;20.95;6.72;;;;;;;23.85;63.11;100073.97;5009009;28;20262;-83
2022/09/16 05:58:54;;;;;;;19.00;6.28;;;;;;;23.79;63.42;100064.91;5007338;28;20511;-83
2022/09/16 06:01:32;;;;;;;7.90;4.30;;;;;;;23.89;63.57;100075.97;5024538;28;20053;-81
2022/09/16 06:04:01;;;;;;;12.23;5.88;;;;;;;23.71;63.68;100040.81;5009097;28;20141;-81
2022/09/16 06:06:32;;;;;;;13.98;5.97;;;;;;;23.93;63.63;100076.31;4998611;28;20220;-82
2022/09/16 06:09:17;;;;;;;13.27;5.57;;;;;;;23.97;63.79;100061.22;4989330;28;20133;-82
2022/09/16 06:11:46;;;;;;;14.48;5.47;;;;;;;23.95;63.94;100055.22;5006554;28;20126;-83
2022/09/16 06:14:14;;;;;;;14.88;6.60;;;;;;;24.06;63.57;100064.41;5005220;28;20081;-81
2022/09/16 06:16:42;;;;;;;16.02;6.90;;;;;;;23.75;63.35;99995.16;5005384;28;20135;-82
2022/09/16 06:19:14;;;;;;;21.25;6.43;;;;;;;24.03;63.12;100040.47;4989266;28;20493;-80
2022/09/16 06:21:44;;;;;;;23.85;5.82;;;;;;;24.03;62.62;100027.75;4989536;28;20126;-81
2022/09/16 06:24:13;;;;;;;12.85;5.35;;;;;;;24.26;62.85;100058.59;4988170;28;20505;-81
2022/09/16 06:26:42;;;;;;;13.60;5.57;;;;;;;24.14;62.76;100031.50;4988636;28;20046;-83
2022/09/16 06:29:10;;;;;;;12.95;4.72;;;;;;;24.36;62.28;100057.97;4988427;28;20052;-82
2022/09/16 06:31:37;;;;;;;16.48;5.18;;;;;;;24.28;61.93;100041.00;4989029;28;20058;-81
2022/09/16 06:34:05;;;;;;;12.50;4.25;;;;;;;24.49;61.39;100058.56;4988916;28;20572;-82
2022/09/16 06:36:36;;;;;;;14.00;5.32;;;;;;;24.27;61.14;100017.69;4990177;28;20057;-82
2022/09/16 06:39:10;;;;;;;7.35;3.90;;;;;;;24.65;60.87;100061.56;5024827;28;20136;-81
2022/09/16 06:41:37;;;;;;;13.93;3.88;;;;;;;24.86;58.33;100046.47;5024877;28;20429;-82
2022/09/16 06:44:04;;;;;;;15.70;4.03;;;;;;;25.06;57.32;100056.88;5025183;28;20056;-80
2022/09/16 06:46:30;;;;;;;11.18;3.60;;;;;;;24.82;57.06;100013.56;5008567;28;20588;-80
2022/09/16 06:48:57;;;;;;;7.60;3.08;;;;;;;25.16;56.56;100051.59;5008195;28;20060;-82
2022/09/16 06:51:31;;;;;;;10.85;3.47;;;;;;;23.90;56.71;99838.25;5009326;28;20049;-82
2022/09/16 06:54:00;;;;;;;15.88;3.05;;;;;;;24.63;56.43;99950.53;5008022;28;20064;-83
2022/09/16 06:56:27;;;;;;;17.02;4.20;;;;;;;25.26;56.90;100043.66;5008138;28;20050;-82
2022/09/16 06:58:54;;;;;;;11.40;4.40;;;;;;;24.74;57.49;99956.97;5008329;28;20143;-82
2022/09/16 07:01:27;;;;;;;15.25;3.92;;;;;;;24.39;56.20;99871.13;5025301;28;20455;-81
2022/09/16 07:03:56;;;;;;;13.63;3.95;;;;;;;25.43;56.26;100038.22;5008271;28;20065;-81
2022/09/16 07:06:26;;;;;;;14.52;3.78;;;;;;;25.36;54.98;100002.22;5007945;28;20104;-81
2022/09/16 07:09:13;;;;;;;11.85;3.33;;;;;;;25.79;54.58;100033.31;5010633;28;20504;-84
2022/09/16 07:11:40;;;;;;;15.40;3.72;;;;;;;25.02;54.45;99890.06;5008393;28;20069;-81
2022/09/16 07:14:07;;;;;;;13.57;3.50;;;;;;;26.00;53.95;100021.66;5007213;28;20469;-81
2022/09/16 07:16:34;;;;;;;11.35;3.67;;;;;;;25.58;54.17;99962.38;5008894;28;20494;-80
2022/09/16 07:19:00;;;;;;;8.45;2.67;;;;;;;25.98;53.96;100015.66;5012061;28;20381;-80
2022/09/16 07:21:29;;;;;;;10.10;3.40;;;;;;;26.03;53.50;100011.34;5012431;28;20045;-80
2022/09/16 07:24:01;;;;;;;14.02;3.35;;;;;;;25.88;53.81;99985.59;5007030;28;20334;-81
2022/09/16 07:26:33;;;;;;;6.03;3.88;;;;;;;25.98;54.93;100014.81;4991699;28;20049;-80
2022/09/16 07:29:02;;;;;;;10.30;4.18;;;;;;;26.06;55.40;100032.59;4991304;28;20322;-80
2022/09/16 07:31:32;;;;;;;15.02;4.20;;;;;;;26.00;56.05;100029.81;4992526;28;20050;-79
2022/09/16 07:34:03;;;;;;;14.73;4.68;;;;;;;25.59;55.67;99960.47;4993335;28;20081;-79
2022/09/16 07:36:44;;;;;;;14.32;4.32;;;;;;;25.84;56.07;99997.22;4993583;28;20437;-81
2022/09/16 07:39:14;;;;;;;14.38;5.07;;;;;;;25.68;55.84;99971.69;5027788;28;20088;-82
2022/09/16 07:41:42;;;;;;;13.20;4.85;;;;;;;24.81;55.85;99823.78;5027897;28;20144;-80
2022/09/16 07:44:11;;;;;;;11.70;4.13;;;;;;;26.14;55.96;100033.00;5028017;28;20481;-83
2022/09/16 07:46:38;;;;;;;13.20;3.75;;;;;;;26.12;55.54;100016.09;5027997;28;20134;-80
2022/09/16 07:49:07;;;;;;;17.45;5.30;;;;;;;25.19;55.98;99871.88;5027294;28;20049;-80
2022/09/16 07:51:37;;;;;;;14.90;5.10;;;;;;;25.45;55.59;99921.13;5022759;28;20429;-79
2022/09/16 07:54:09;;;;;;;12.35;4.38;;;;;;;25.97;55.67;99997.69;5013576;28;20058;-80
2022/09/16 07:56:37;;;;;;;19.38;4.85;;;;;;;25.93;55.39;99974.78;5011604;28;20305;-83
2022/09/16 07:59:06;;;;;;;13.27;4.30;;;;;;;25.85;56.04;99949.91;5029173;28;20490;-80
2022/09/16 08:01:33;;;;;;;21.75;5.88;;;;;;;26.18;55.83;100015.06;5028836;28;20481;-81
2022/09/16 08:04:05;;;;;;;14.60;4.75;;;;;;;26.27;56.16;100037.22;5011409;28;20103;-82
2022/09/16 08:06:35;;;;;;;13.88;5.40;;;;;;;26.18;55.95;100019.69;5011154;28;20096;-82
2022/09/16 08:09:02;;;;;;;21.58;5.72;;;;;;;26.28;56.03;100032.59;5010947;28;20136;-82
2022/09/16 08:11:46;;;;;;;17.13;5.50;;;;;;;26.16;55.69;100013.69;5013522;28;20484;-82
2022/09/16 08:14:13;;;;;;;15.40;5.20;;;;;;;25.66;55.77;99923.06;5011005;28;20056;-80
2022/09/16 08:16:39;;;;;;;10.38;4.32;;;;;;;26.18;55.54;100003.38;5011043;28;20041;-83
2022/09/16 08:19:06;;;;;;;10.77;3.72;;;;;;;26.29;55.05;100020.63;5010991;28;20103;-82
2022/09/16 08:21:32;;;;;;;10.90;3.78;;;;;;;26.16;54.68;99995.44;5028260;28;20100;-82
2022/09/16 08:23:59;;;;;;;16.65;4.28;;;;;;;26.33;54.54;100027.22;5010534;28;20057;-84
2022/09/16 08:26:26;;;;;;;11.90;4.18;;;;;;;26.36;54.08;100011.22;5010844;28;20485;-83
2022/09/16 08:28:54;;;;;;;12.35;3.85;;;;;;;26.34;53.85;99998.94;5009965;28;20057;-82
2022/09/16 08:31:35;;;;;;;12.93;4.05;;;;;;;26.34;52.80;99990.78;5027837;28;20353;-79
2022/09/16 08:34:03;;;;;;;9.93;3.53;;;;;;;26.66;53.34;100037.13;5028406;28;20053;-80
2022/09/16 08:36:32;;;;;;;10.20;4.13;;;;;;;26.52;53.74;100016.81;5002107;28;20084;-79
2022/09/16 08:38:58;;;;;;;7.65;3.55;;;;;;;26.10;53.68;99949.44;5010231;28;20053;-82
2022/09/16 08:41:44;;;;;;;11.65;4.22;;;;;;;26.71;53.09;100045.34;5010329;28;20053;-79
2022/09/16 08:44:32;;;;;;;8.77;3.67;;;;;;;26.75;52.42;100046.50;5010033;28;20547;-80
2022/09/16 08:47:37;;;;;;;11.65;4.20;;;;;;;26.84;52.62;100046.81;5027892;28;20041;-81
2022/09/16 08:50:13;;;;;;;9.88;3.63;;;;;;;26.77;52.07;100016.25;4974150;28;20049;-79
2022/09/16 08:52:43;;;;;;;8.18;3.38;;;;;;;26.92;51.97;100046.38;4990433;28;20410;-79
2022/09/16 08:55:17;;;;;;;5.85;2.60;;;;;;;26.27;51.10;99935.75;4990063;28;20072;-81
2022/09/16 08:57:57;;;;;;;5.32;3.15;;;;;;;26.73;50.51;100005.09;5008113;28;20330;-79
2022/09/16 09:00:24;;;;;;;13.80;3.85;;;;;;;26.97;50.63;100043.72;4990209;28;20482;-80
2022/09/16 09:02:56;;;;;;;9.52;3.35;;;;;;;27.07;49.91;100049.25;4989899;28;20053;-80
2022/09/16 09:05:31;;;;;;;8.00;2.90;;;;;;;26.70;49.14;99966.66;4990183;28;20464;-80
2022/09/16 09:08:10;;;;;;;12.90;5.68;;;;;;;27.16;48.67;100046.03;4989966;28;20104;-81
2022/09/16 09:10:46;;;;;;;7.03;3.28;;;;;;;27.37;48.22;100047.88;5007854;28;20560;-80
2022/09/16 09:13:51;;;;;;;20.38;4.25;;;;;;;27.29;48.23;100051.09;5021417;28;20060;-79
2022/09/16 09:16:29;;;;;;;8.32;3.80;;;;;;;26.97;48.88;99996.59;5009570;28;20480;-79
2022/09/16 09:19:08;;;;;;;7.35;3.30;;;;;;;27.60;48.17;100051.28;5026800;28;20041;-80
2022/09/16 09:22:03;;;;;;;11.82;3.42;;;;;;;27.73;47.67;100045.38;5008884;28;20111;-80
2022/09/16 09:24:58;;;;;;;11.13;3.30;;;;;;;27.40;47.57;99992.81;4982804;28;20072;-80
2022/09/16 09:27:43;;;;;;;10.23;3.75;;;;;;;27.92;47.81;100053.97;5027605;28;20104;-81
2022/09/16 09:30:27;;;;;;;11.13;3.50;;;;;;;27.98;47.75;100025.63;5008681;28;20380;-80
2022/09/16 09:33:15;;;;;;;7.43;3.45;;;;;;;28.17;47.84;100047.00;5008206;28;20049;-80
2022/09/16 09:36:17;;;;;;;12.32;4.03;;;;;;;28.27;46.96;100056.03;5027756;28;20056;-81
2022/09/16 09:39:18;;;;;;;9.50;3.95;;;;;;;28.08;46.96;100013.94;5013238;28;20363;-81
2022/09/16 09:41:51;;;;;;;5.75;3.25;;;;;;;28.48;47.23;100028.84;5007449;28;20107;-81
2022/09/16 09:44:33;;;;;;;10.60;3.55;;;;;;;28.70;46.51;100070.41;5008375;28;20462;-79
2022/09/16 09:47:07;;;;;;;6.68;3.50;;;;;;;28.71;46.66;100038.44;5009207;28;20119;-80
2022/09/16 09:49:39;;;;;;;9.43;3.33;;;;;;;28.78;46.03;100025.34;5004761;28;20412;-80
2022/09/16 09:52:32;;;;;;;11.55;3.85;;;;;;;29.00;44.80;100035.22;5009170;28;20053;-79
2022/09/16 09:55:13;;;;;;;6.60;3.25;;;;;;;29.10;45.06;100036.06;5026837;28;20077;-79
2022/09/16 09:57:51;;;;;;;16.77;4.25;;;;;;;29.41;45.82;100046.97;5025466;28;20065;-80
2022/09/16 10:00:20;;;;;;;8.25;3.72;;;;;;;29.53;43.99;100028.38;5008950;28;20057;-81
2022/09/16 10:02:48;;;;;;;9.75;3.70;;;;;;;29.60;44.66;100045.31;5002480;28;20053;-80
2022/09/16 10:05:26;;;;;;;8.23;3.83;;;;;;;29.63;44.06;100043.94;5002009;28;20045;-77
2022/09/16 10:08:01;;;;;;;9.43;3.65;;;;;;;29.79;43.98;100052.97;5006820;28;20395;-80
2022/09/16 10:10:32;;;;;;;8.75;3.95;;;;;;;29.50;43.69;99990.66;5005828;28;20065;-79
2022/09/16 10:13:12;;;;;;;17.75;4.10;;;;;;;29.46;43.36;99964.13;5006672;28;20053;-80
2022/09/16 10:15:42;;;;;;;6.28;3.72;;;;;;;29.84;43.26;100000.97;5005299;28;20321;-80
2022/09/16 10:18:28;;;;;;;7.47;3.45;;;;;;;30.13;42.84;100008.53;4989462;28;20057;-80
2022/09/16 10:21:03;;;;;;;7.03;3.50;;;;;;;30.39;42.94;100040.19;5006490;28;20050;-80
2022/09/16 10:23:32;;;;;;;14.77;3.40;;;;;;;29.21;42.87;99847.50;5004247;28;20053;-78
2022/09/16 10:26:04;;;;;;;12.82;4.22;;;;;;;30.24;42.84;99983.56;4986239;28;20049;-79
2022/09/16 10:28:32;;;;;;;10.90;3.90;;;;;;;30.54;42.56;100013.81;4986069;28;20225;-79
2022/09/16 10:31:01;;;;;;;11.02;3.75;;;;;;;29.80;41.58;99874.88;4988404;28;20101;-79
2022/09/16 10:33:43;;;;;;;17.90;4.70;;;;;;;30.97;41.64;100028.59;4970348;28;20054;-78
2022/09/16 10:36:18;;;;;;;12.68;3.15;;;;;;;30.34;41.29;99947.13;4984595;28;20056;-79
2022/09/16 10:38:53;;;;;;;9.82;3.60;;;;;;;30.62;41.10;99942.81;5004198;28;20058;-80
2022/09/16 10:41:25;;;;;;;13.27;3.35;;;;;;;31.11;41.15;100023.28;5005105;28;20100;-79
2022/09/16 10:43:58;;;;;;;10.35;3.65;;;;;;;30.82;40.73;99958.25;5005172;28;20086;-82
2022/09/16 10:46:26;;;;;;;11.85;4.20;;;;;;;31.25;41.10;100013.28;5004601;28;20125;-79
2022/09/16 10:48:58;;;;;;;13.48;4.50;;;;;;;31.38;41.09;100008.22;4996354;28;20117;-79
2022/09/16 10:51:28;;;;;;;9.68;4.07;;;;;;;31.64;40.88;100009.63;4985852;28;20281;-80
2022/09/16 10:54:04;;;;;;;10.27;4.35;;;;;;;31.14;40.64;99904.00;4987887;28;20058;-78
2022/09/16 10:56:49;;;;;;;7.28;3.47;;;;;;;31.80;39.64;99988.34;4989196;28;20108;-79
2022/09/16 10:59:17;;;;;;;9.23;3.75;;;;;;;30.82;40.30;99795.78;4974110;28;20530;-78
2022/09/16 11:02:02;;;;;;;11.73;4.38;;;;;;;32.19;39.66;100008.44;4990347;28;20111;-80
2022/09/16 11:04:55;;;;;;;13.20;3.75;;;;;;;32.41;38.44;100005.16;5009628;28;20148;-78
2022/09/16 11:07:46;;;;;;;12.00;4.05;;;;;;;32.66;38.55;99996.53;4993781;28;20147;-80
2022/09/16 11:10:25;;;;;;;18.08;4.40;;;;;;;32.80;38.89;100001.28;4993148;28;20058;-78
2022/09/16 11:13:33;;;;;;;11.73;3.50;;;;;;;32.39;37.94;99924.97;5007769;28;20045;-79
2022/09/16 11:16:41;;;;;;;14.45;4.55;;;;;;;32.77;38.51;99959.56;5009813;28;20053;-80
2022/09/16 11:19:24;;;;;;;12.02;4.05;;;;;;;33.17;38.27;99994.91;4972421;28;20053;-80
2022/09/16 11:22:24;;;;;;;15.95;4.18;;;;;;;32.99;38.33;99969.91;5021055;28;20320;-80
2022/09/16 11:24:56;;;;;;;8.88;3.45;;;;;;;33.06;38.16;99999.78;5004865;28;20145;-83
2022/09/16 11:27:25;;;;;;;12.02;4.60;;;;;;;32.79;38.18;100003.19;5010451;28;20050;-82
2022/09/16 11:30:04;;;;;;;9.20;3.97;;;;;;;32.24;38.52;99920.53;4997213;28;20050;-79
2022/09/16 11:33:04;;;;;;;10.90;3.92;;;;;;;32.52;38.73;99990.97;4994060;28;20141;-82
2022/09/16 11:35:56;;;;;;;15.20;4.70;;;;;;;32.53;38.30;99992.63;4997455;28;20103;-81
2022/09/16 11:38:55;;;;;;;17.08;4.43;;;;;;;32.45;38.66;99984.19;5010757;28;20053;-79
2022/09/16 11:41:58;;;;;;;8.68;3.42;;;;;;;32.33;38.75;99992.88;5019670;28;20136;-80
2022/09/16 11:45:07;;;;;;;9.15;4.05;;;;;;;31.71;39.73;99930.53;5034928;28;20049;-81
2022/09/16 11:47:53;;;;;;;9.00;3.47;;;;;;;31.73;41.10;99942.03;4963250;28;20136;-81
2022/09/16 11:50:51;;;;;;;11.55;4.53;;;;;;;32.22;39.58;99969.44;5032807;28;20045;-80
2022/09/16 11:53:44;;;;;;;9.02;4.40;;;;;;;32.23;38.67;99878.50;5004015;28;20416;-83
2022/09/16 11:56:30;;;;;;;13.57;4.85;;;;;;;32.90;38.14;99957.94;4993419;28;20054;-82
2022/09/16 11:59:32;;;;;;;;;;;;;;;;;;;;;
2022/09/16 12:02:15;;;;;;;14.52;5.20;;;;;;;32.38;38.83;99954.34;5011426;28;20062;-82